createdAt,value
2023-05-08T00:01:00.883Z,51.18
2023-05-08T00:03:47.499Z,52.89
2023-05-08T00:06:34.120Z,55.56
2023-05-08T00:09:20.981Z,57.17
2023-05-08T00:12:07.307Z,58.44
2023-05-08T00:14:53.399Z,59.55
2023-05-08T00:17:39.953Z,60.45
2023-05-08T00:20:26.388Z,61.82
2023-05-08T00:23:12.960Z,71.97
2023-05-08T00:25:59.785Z,68.92
2023-05-08T00:28:46.242Z,63.01
2023-05-08T00:31:32.775Z,54.23
2023-05-08T00:34:19.311Z,53.63
2023-05-08T00:37:05.935Z,54.57
2023-05-08T00:39:52.684Z,56.75
2023-05-08T00:42:39.829Z,56.51
2023-05-08T00:45:34.582Z,58.26
2023-05-08T00:48:26.396Z,59.49
2023-05-08T00:51:13.275Z,59.54
2023-05-08T00:54:00.335Z,61.07
2023-05-08T00:56:47.308Z,73.96
2023-05-08T00:59:35.738Z,71.04
2023-05-08T01:02:22.334Z,61.94
2023-05-08T01:05:09.514Z,53.24
2023-05-08T01:07:56.553Z,53.07
2023-05-08T01:10:46.347Z,56.43
2023-05-08T01:13:42.710Z,59.04
2023-05-08T01:16:37.682Z,59.82
2023-05-08T01:19:46.024Z,61.47
2023-05-08T01:23:01.010Z,72.36
2023-05-08T01:26:41.359Z,65.20
2023-05-08T01:30:01.229Z,53.64
2023-05-08T01:32:56.923Z,53.88
2023-05-08T01:35:49.940Z,57.00
2023-05-08T01:39:19.210Z,57.15
2023-05-08T01:42:14.384Z,58.91
2023-05-08T01:45:06.253Z,61.11
2023-05-08T01:48:06.568Z,61.19
2023-05-08T01:51:08.834Z,73.53
2023-05-08T01:54:04.273Z,68.36
2023-05-08T01:56:55.089Z,58.43
2023-05-08T01:59:44.781Z,52.38
2023-05-08T02:02:33.414Z,54.32
2023-05-08T02:05:22.876Z,57.14
2023-05-08T02:08:12.842Z,58.33
2023-05-08T02:11:00.976Z,60.54
2023-05-08T02:13:48.614Z,70.64
2023-05-08T02:16:39.555Z,68.85
2023-05-08T02:19:29.231Z,61.51
2023-05-08T02:22:18.274Z,52.15
2023-05-08T02:25:05.077Z,51.59
2023-05-08T02:27:54.299Z,52.01
2023-05-08T02:30:42.781Z,56.39
2023-05-08T02:33:30.864Z,57.80
2023-05-08T02:36:20.386Z,58.68
2023-05-08T02:39:11.781Z,60.76
2023-05-08T02:41:58.254Z,69.42
2023-05-08T02:44:45.038Z,68.93
2023-05-08T02:47:42.438Z,59.85
2023-05-08T02:50:41.615Z,51.47
2023-05-08T02:53:45.386Z,52.81
2023-05-08T02:56:44.299Z,55.05
2023-05-08T02:59:42.457Z,58.07
2023-05-08T03:02:43.207Z,59.46
2023-05-08T03:05:33.543Z,61.07
2023-05-08T03:08:29.830Z,69.22
2023-05-08T03:11:21.818Z,71.64
2023-05-08T03:14:14.229Z,61.01
2023-05-08T03:17:06.423Z,52.22
2023-05-08T03:19:58.151Z,52.58
2023-05-08T03:22:46.959Z,55.97
2023-05-08T03:25:38.601Z,57.52
2023-05-08T03:28:27.625Z,58.51
2023-05-08T03:31:21.449Z,59.64
2023-05-08T03:34:09.804Z,65.15
2023-05-08T03:36:57.060Z,72.67
2023-05-08T03:39:44.087Z,65.02
2023-05-08T03:42:31.493Z,53.92
2023-05-08T03:45:20.047Z,52.03
2023-05-08T03:48:09.582Z,54.26
2023-05-08T03:50:58.546Z,56.64
2023-05-08T03:53:45.366Z,59.69
2023-05-08T03:56:33.940Z,60.03
2023-05-08T03:59:32.436Z,61.14
2023-05-08T04:02:50.463Z,73.04
2023-05-08T04:05:47.019Z,66.72
2023-05-08T04:08:42.354Z,56.69
2023-05-08T04:11:45.956Z,52.43
2023-05-08T04:14:42.928Z,54.13
2023-05-08T04:18:00.455Z,56.38
2023-05-08T04:20:50.789Z,58.03
2023-05-08T04:23:39.894Z,58.67
2023-05-08T04:26:27.042Z,59.64
2023-05-08T04:29:17.029Z,61.61
2023-05-08T04:32:05.705Z,70.02
2023-05-08T04:34:53.274Z,68.50
2023-05-08T04:37:42.186Z,59.84
2023-05-08T04:40:30.025Z,51.45
2023-05-08T04:43:16.838Z,52.41
2023-05-08T04:46:06.214Z,54.24
2023-05-08T04:48:53.038Z,56.73
2023-05-08T04:51:39.876Z,58.06
2023-05-08T04:54:26.727Z,58.35
2023-05-08T04:57:14.365Z,59.73
2023-05-08T05:00:00.940Z,61.30
2023-05-08T05:02:48.900Z,71.47
2023-05-08T05:05:38.709Z,67.39
2023-05-08T05:08:25.974Z,57.50
2023-05-08T05:11:13.892Z,51.66
2023-05-08T05:14:00.703Z,53.51
2023-05-08T05:16:47.768Z,55.51
2023-05-08T05:19:34.784Z,56.94
2023-05-08T05:22:21.623Z,57.33
2023-05-08T05:25:08.757Z,58.57
2023-05-08T05:27:55.483Z,59.30
2023-05-08T05:30:48.076Z,59.96
2023-05-08T05:33:34.728Z,60.88
2023-05-08T05:36:21.213Z,68.82
2023-05-08T05:39:08.196Z,67.19
2023-05-08T05:41:55.042Z,58.29
2023-05-08T05:44:42.157Z,52.06
2023-05-08T05:47:29.269Z,52.90
2023-05-08T05:50:18.248Z,54.47
2023-05-08T05:53:05.678Z,54.91
2023-05-08T05:55:53.126Z,56.51
2023-05-08T05:58:44.405Z,56.24
2023-05-08T06:01:31.127Z,56.61
2023-05-08T06:04:17.739Z,57.32
2023-05-08T06:07:04.599Z,57.14
2023-05-08T06:09:51.274Z,58.14
2023-05-08T06:12:38.014Z,57.23
2023-05-08T06:15:25.447Z,56.82
2023-05-08T06:18:13.020Z,55.67
2023-05-08T06:20:59.447Z,55.53
2023-05-08T06:23:47.006Z,56.49
2023-05-08T06:26:33.868Z,56.80
2023-05-08T06:29:20.381Z,56.98
2023-05-08T06:32:07.330Z,57.04
2023-05-08T06:34:53.717Z,54.60
2023-05-08T06:37:40.129Z,54.49
2023-05-08T06:40:26.576Z,52.94
2023-05-08T06:43:13.757Z,52.77
2023-05-08T06:46:00.295Z,53.68
2023-05-08T06:48:49.389Z,54.41
2023-05-08T06:51:35.881Z,55.00
2023-05-08T06:54:22.433Z,53.80
2023-05-08T06:57:08.911Z,53.02
2023-05-08T06:59:55.418Z,52.04
2023-05-08T07:02:42.034Z,53.21
2023-05-08T07:05:28.627Z,50.25
2023-05-08T07:08:15.357Z,51.43
2023-05-08T07:11:01.967Z,50.67
2023-05-08T07:13:48.808Z,50.90
2023-05-08T07:16:35.340Z,48.00
2023-05-08T07:19:22.659Z,48.90
2023-05-08T07:22:09.113Z,47.87
2023-05-08T07:24:55.578Z,49.46
2023-05-08T07:27:42.597Z,48.68
2023-05-08T07:30:29.036Z,47.22
2023-05-08T07:33:15.677Z,48.95
2023-05-08T07:36:02.375Z,49.06
2023-05-08T07:38:48.983Z,48.81
2023-05-08T07:41:37.301Z,48.44
2023-05-08T07:44:23.745Z,48.23
2023-05-08T07:47:10.387Z,46.06
2023-05-08T07:49:56.988Z,46.96
2023-05-08T07:52:43.327Z,46.91
2023-05-08T07:55:29.685Z,47.29
2023-05-08T07:58:16.435Z,46.82
2023-05-08T08:01:03.389Z,46.43
2023-05-08T08:03:49.896Z,46.56
2023-05-08T08:06:36.570Z,45.74
2023-05-08T08:09:23.175Z,44.59
2023-05-08T08:12:09.640Z,44.92
2023-05-08T08:14:56.177Z,44.60
2023-05-08T08:17:42.402Z,43.79
2023-05-08T08:20:29.422Z,45.18
2023-05-08T08:23:16.158Z,45.12
2023-05-08T08:26:02.603Z,44.64
2023-05-08T08:28:49.183Z,45.08
2023-05-08T08:31:35.597Z,43.96
2023-05-08T08:34:22.706Z,44.15
2023-05-08T08:37:10.040Z,44.48
2023-05-08T08:39:56.640Z,43.64
2023-05-08T08:42:43.364Z,43.64
2023-05-08T08:45:31.158Z,41.47
2023-05-08T08:48:19.874Z,42.23
2023-05-08T08:51:13.634Z,42.79
2023-05-08T08:54:11.986Z,41.94
2023-05-08T08:57:02.105Z,42.62
2023-05-08T08:59:49.461Z,42.56
2023-05-08T09:02:36.552Z,42.27
2023-05-08T09:05:24.379Z,41.41
2023-05-08T09:08:12.728Z,41.03
2023-05-08T09:11:02.212Z,38.34
2023-05-08T09:13:49.037Z,37.96
2023-05-08T09:16:35.811Z,39.25
2023-05-08T09:19:26.209Z,39.36
2023-05-08T09:22:14.776Z,39.55
2023-05-08T09:25:02.282Z,38.29
2023-05-08T09:27:48.842Z,39.13
2023-05-08T09:30:49.082Z,38.62
2023-05-08T09:33:44.614Z,38.66
2023-05-08T09:36:31.984Z,38.72
2023-05-08T09:39:25.896Z,38.52
2023-05-08T09:42:12.709Z,38.99
2023-05-08T09:44:59.137Z,39.09
2023-05-08T09:47:48.807Z,39.16
2023-05-08T09:50:35.494Z,38.50
2023-05-08T09:53:31.834Z,38.70
2023-05-08T09:56:30.067Z,38.33
2023-05-08T09:59:27.416Z,38.50
2023-05-08T10:02:16.359Z,38.49
2023-05-08T10:05:04.449Z,38.09
2023-05-08T10:07:51.483Z,37.92
2023-05-08T10:10:38.479Z,37.90
2023-05-08T10:13:26.237Z,37.96
2023-05-08T10:16:17.768Z,37.80
2023-05-08T10:19:09.165Z,37.38
2023-05-08T10:21:57.391Z,37.06
2023-05-08T10:24:46.854Z,37.32
2023-05-08T10:27:47.076Z,37.28
2023-05-08T10:30:35.598Z,36.58
2023-05-08T10:33:31.069Z,33.88
2023-05-08T10:36:18.353Z,34.29
2023-05-08T10:39:05.304Z,35.40
2023-05-08T10:41:52.031Z,36.00
2023-05-08T10:44:38.603Z,36.72
2023-05-08T10:47:46.148Z,36.71
2023-05-08T10:50:42.678Z,36.45
2023-05-08T10:53:36.275Z,36.36
2023-05-08T10:56:29.121Z,35.47
2023-05-08T10:59:19.875Z,34.94
2023-05-08T11:02:08.314Z,34.90
2023-05-08T11:04:55.209Z,35.01
2023-05-08T11:07:58.700Z,34.66
2023-05-08T11:11:05.156Z,33.38
2023-05-08T11:13:57.998Z,33.24
2023-05-08T11:17:08.568Z,34.55
2023-05-08T11:20:00.736Z,34.14
2023-05-08T11:22:48.094Z,34.88
2023-05-08T11:25:44.753Z,35.59
2023-05-08T11:28:39.149Z,35.68
2023-05-08T11:31:52.566Z,35.40
2023-05-08T11:34:41.981Z,35.07
2023-05-08T11:37:29.617Z,34.99
2023-05-08T11:40:47.014Z,34.89
2023-05-08T11:43:33.572Z,35.13
2023-05-08T11:46:21.848Z,34.63
2023-05-08T11:49:14.439Z,34.34
2023-05-08T11:52:04.414Z,34.71
2023-05-08T11:54:50.620Z,35.01
2023-05-08T11:57:37.266Z,35.50
2023-05-08T12:00:23.537Z,35.34
2023-05-08T12:03:13.262Z,34.96
2023-05-08T12:06:00.029Z,34.80
2023-05-08T12:08:46.594Z,35.07
2023-05-08T12:11:33.130Z,34.95
2023-05-08T12:14:19.918Z,34.68
2023-05-08T12:17:06.860Z,34.36
2023-05-08T12:19:56.704Z,33.36
2023-05-08T12:22:50.651Z,29.50
2023-05-08T12:25:39.156Z,31.69
2023-05-08T12:28:25.284Z,32.03
2023-05-08T12:31:12.713Z,30.18
2023-05-08T12:33:59.763Z,30.18
2023-05-08T12:36:46.599Z,28.42
2023-05-08T12:39:37.758Z,27.94
2023-05-08T12:42:44.893Z,27.69
2023-05-08T12:45:34.944Z,28.37
2023-05-08T12:48:21.616Z,27.47
2023-05-08T12:51:08.485Z,25.26
2023-05-08T12:53:54.942Z,25.65
2023-05-08T12:56:47.086Z,25.39
2023-05-08T12:59:33.675Z,24.40
2023-05-08T13:02:26.573Z,23.77
2023-05-08T13:05:19.034Z,22.40
2023-05-08T13:08:07.479Z,20.61
2023-05-08T13:10:55.698Z,21.33
2023-05-08T13:13:42.375Z,21.78
2023-05-08T13:16:28.878Z,20.77
2023-05-08T13:19:16.015Z,21.09
2023-05-08T13:22:02.487Z,20.52
2023-05-08T13:24:49.053Z,19.84
2023-05-08T13:27:35.727Z,20.02
2023-05-08T13:30:22.849Z,19.08
2023-05-08T13:33:09.627Z,19.56
2023-05-08T13:35:56.253Z,19.06
2023-05-08T13:38:42.981Z,19.25
2023-05-08T13:41:29.533Z,18.32
2023-05-08T13:44:15.938Z,17.65
2023-05-08T13:47:02.555Z,16.05
2023-05-08T13:49:50.306Z,16.46
2023-05-08T13:52:40.364Z,15.06
2023-05-08T13:55:26.900Z,16.04
2023-05-08T13:58:13.781Z,15.87
2023-05-08T14:01:10.297Z,16.05
2023-05-08T14:04:01.027Z,15.53
2023-05-08T14:06:47.718Z,15.50
2023-05-08T14:09:34.131Z,14.82
2023-05-08T14:12:20.436Z,13.74
2023-05-08T14:15:07.895Z,14.96
2023-05-08T14:17:54.089Z,15.12
2023-05-08T14:20:40.632Z,14.61
2023-05-08T14:23:28.055Z,14.64
2023-05-08T14:26:14.765Z,15.46
2023-05-08T14:29:01.027Z,15.04
2023-05-08T14:31:47.923Z,14.33
2023-05-08T14:34:35.141Z,14.73
2023-05-08T14:37:21.424Z,14.48
2023-05-08T14:40:11.152Z,14.19
2023-05-08T14:42:57.634Z,13.76
2023-05-08T14:45:44.140Z,13.20
2023-05-08T14:48:30.537Z,13.62
2023-05-08T14:51:19.399Z,12.38
2023-05-08T14:54:06.708Z,12.66
2023-05-08T14:56:53.601Z,12.94
2023-05-08T14:59:49.095Z,13.19
2023-05-08T15:02:40.193Z,12.72
2023-05-08T15:05:27.405Z,12.59
2023-05-08T15:08:14.323Z,12.67
2023-05-08T15:11:00.907Z,12.17
2023-05-08T15:13:47.406Z,12.04
2023-05-08T15:16:33.970Z,13.01
2023-05-08T15:19:20.935Z,13.32
2023-05-08T15:22:07.656Z,13.56
2023-05-08T15:24:54.072Z,14.33
2023-05-08T15:27:41.714Z,15.42
2023-05-08T15:30:28.056Z,16.68
2023-05-08T15:33:14.693Z,17.43
2023-05-08T15:36:01.262Z,18.03
2023-05-08T15:38:49.294Z,18.58
2023-05-08T15:41:37.308Z,19.08
2023-05-08T15:44:26.469Z,19.89
2023-05-08T15:47:13.285Z,20.39
2023-05-08T15:49:59.558Z,20.68
2023-05-08T15:52:46.047Z,21.14
2023-05-08T15:55:32.749Z,21.67
2023-05-08T15:58:19.049Z,21.90
2023-05-08T16:01:06.112Z,22.29
2023-05-08T16:03:52.630Z,22.62
2023-05-08T16:06:39.309Z,23.04
2023-05-08T16:09:26.452Z,23.20
2023-05-08T16:12:12.823Z,22.66
2023-05-08T16:14:59.424Z,21.35
2023-05-08T16:17:45.924Z,19.90
2023-05-08T16:20:34.990Z,18.59
2023-05-08T16:23:22.336Z,17.81
2023-05-08T16:26:09.453Z,16.94
2023-05-08T16:28:55.951Z,16.09
2023-05-08T16:31:42.336Z,15.82
2023-05-08T16:34:28.827Z,14.62
2023-05-08T16:37:15.651Z,14.62
2023-05-08T16:40:02.580Z,14.05
2023-05-08T16:42:49.256Z,14.07
2023-05-08T16:45:35.785Z,13.88
2023-05-08T16:48:22.023Z,13.28
2023-05-08T16:51:08.423Z,13.32
2023-05-08T16:53:56.109Z,13.96
2023-05-08T16:56:44.419Z,14.92
2023-05-08T16:59:30.838Z,15.82
2023-05-08T17:02:19.082Z,16.58
2023-05-08T17:05:06.341Z,16.95
2023-05-08T17:07:52.448Z,16.89
2023-05-08T17:10:42.164Z,16.84
2023-05-08T17:13:29.055Z,16.91
2023-05-08T17:16:16.267Z,16.64
2023-05-08T17:19:04.336Z,16.54
2023-05-08T17:21:51.158Z,16.04
2023-05-08T17:24:38.110Z,16.41
2023-05-08T17:27:24.374Z,16.53
2023-05-08T17:30:12.233Z,16.41
2023-05-08T17:32:59.309Z,16.48
2023-05-08T17:35:45.980Z,17.13
2023-05-08T17:38:32.353Z,17.82
2023-05-08T17:41:18.713Z,18.81
2023-05-08T17:44:05.152Z,19.62
2023-05-08T17:46:52.002Z,20.59
2023-05-08T17:49:38.290Z,21.96
2023-05-08T17:52:25.147Z,22.12
2023-05-08T17:55:11.596Z,22.92
2023-05-08T17:57:58.294Z,23.63
2023-05-08T18:00:44.840Z,24.25
2023-05-08T18:03:31.981Z,25.15
2023-05-08T18:06:18.915Z,25.88
2023-05-08T18:09:05.742Z,26.36
2023-05-08T18:11:52.608Z,26.94
2023-05-08T18:14:39.408Z,27.55
2023-05-08T18:17:29.356Z,27.94
2023-05-08T18:20:15.993Z,28.53
2023-05-08T18:23:02.369Z,28.54
2023-05-08T18:25:48.573Z,28.90
2023-05-08T18:28:36.283Z,29.65
2023-05-08T18:31:22.562Z,30.57
2023-05-08T18:34:09.183Z,30.85
2023-05-08T18:36:56.807Z,31.31
2023-05-08T18:39:44.603Z,31.87
2023-05-08T18:42:31.480Z,32.53
2023-05-08T18:45:17.691Z,33.42
2023-05-08T18:48:04.741Z,34.16
2023-05-08T18:50:51.667Z,34.49
2023-05-08T18:53:38.924Z,35.00
2023-05-08T18:56:26.040Z,35.39
2023-05-08T18:59:12.647Z,35.99
2023-05-08T19:01:59.079Z,36.73
2023-05-08T19:04:46.153Z,37.23
2023-05-08T19:07:32.480Z,37.74
2023-05-08T19:10:18.693Z,38.26
2023-05-08T19:13:05.595Z,38.83
2023-05-08T19:15:53.481Z,39.21
2023-05-08T19:18:40.111Z,39.12
2023-05-08T19:21:26.862Z,39.32
2023-05-08T19:24:16.228Z,39.56
2023-05-08T19:27:02.819Z,39.83
2023-05-08T19:29:49.438Z,40.31
2023-05-08T19:32:35.691Z,40.66
2023-05-08T19:35:22.567Z,40.83
2023-05-08T19:38:08.972Z,41.39
2023-05-08T19:40:57.209Z,41.94
2023-05-08T19:43:44.291Z,42.39
2023-05-08T19:46:30.700Z,42.66
2023-05-08T19:49:17.724Z,43.67
2023-05-08T19:52:04.787Z,44.32
2023-05-08T19:54:51.794Z,43.22
2023-05-08T19:57:38.642Z,45.23
2023-05-08T20:00:25.203Z,45.16
2023-05-08T20:03:11.891Z,46.33
2023-05-08T20:05:58.776Z,47.07
2023-05-08T20:08:45.357Z,48.28
2023-05-08T20:11:31.730Z,49.20
2023-05-08T20:14:18.168Z,48.19
2023-05-08T20:17:04.903Z,48.31
2023-05-08T20:19:51.523Z,48.02
2023-05-08T20:22:37.970Z,48.12
2023-05-08T20:25:24.423Z,48.65
2023-05-08T20:28:11.146Z,49.47
2023-05-08T20:30:57.685Z,50.03
2023-05-08T20:33:44.372Z,50.44
2023-05-08T20:36:31.483Z,50.02
2023-05-08T20:39:18.021Z,50.55
2023-05-08T20:42:04.736Z,50.13
2023-05-08T20:44:51.058Z,51.92
2023-05-08T20:47:37.764Z,52.90
2023-05-08T20:50:24.808Z,52.37
2023-05-08T20:53:11.418Z,53.79
2023-05-08T20:56:02.156Z,53.49
2023-05-08T20:58:48.886Z,53.98
2023-05-08T21:01:35.265Z,54.26
2023-05-08T21:04:21.846Z,52.04
2023-05-08T21:07:08.634Z,51.07
2023-05-08T21:09:55.014Z,50.96
2023-05-08T21:12:41.708Z,51.49
2023-05-08T21:15:28.185Z,51.11
2023-05-08T21:18:15.037Z,54.47
2023-05-08T21:21:01.448Z,55.63
2023-05-08T21:23:48.239Z,56.47
2023-05-08T21:26:34.946Z,54.78
2023-05-08T21:29:21.398Z,54.54
2023-05-08T21:32:10.067Z,54.70
2023-05-08T21:34:56.805Z,54.18
2023-05-08T21:37:43.503Z,52.63
2023-05-08T21:40:29.990Z,53.54
2023-05-08T21:43:16.356Z,55.47
2023-05-08T21:46:07.389Z,55.60
2023-05-08T21:48:53.902Z,53.51
2023-05-08T21:51:40.470Z,54.30
2023-05-08T21:54:27.246Z,54.01
2023-05-08T21:57:13.618Z,55.09
2023-05-08T21:59:59.875Z,55.20
2023-05-08T22:02:46.502Z,55.56
2023-05-08T22:05:33.076Z,57.26
2023-05-08T22:08:19.490Z,58.66
2023-05-08T22:11:06.059Z,59.02
2023-05-08T22:13:52.456Z,60.12
2023-05-08T22:16:39.276Z,60.31
2023-05-08T22:19:26.072Z,60.55
2023-05-08T22:22:12.826Z,59.85
2023-05-08T22:24:59.488Z,59.59
2023-05-08T22:27:46.046Z,57.21
2023-05-08T22:30:32.556Z,58.29
2023-05-08T22:33:19.066Z,59.91
2023-05-08T22:36:06.079Z,59.70
2023-05-08T22:38:52.817Z,60.55
2023-05-08T22:41:39.994Z,62.08
2023-05-08T22:44:26.782Z,69.07
2023-05-08T22:47:13.699Z,73.94
2023-05-08T22:50:00.015Z,65.36
2023-05-08T22:52:47.004Z,55.26
2023-05-08T22:55:35.280Z,50.86
2023-05-08T22:58:21.595Z,52.34
2023-05-08T23:01:08.255Z,53.59
2023-05-08T23:03:54.898Z,52.28
2023-05-08T23:06:41.077Z,52.44
2023-05-08T23:09:27.790Z,52.95
2023-05-08T23:12:14.244Z,54.56
2023-05-08T23:15:00.818Z,54.70
2023-05-08T23:17:47.169Z,54.78
2023-05-08T23:20:33.453Z,55.39
2023-05-08T23:23:19.902Z,56.07
2023-05-08T23:26:06.706Z,57.22
2023-05-08T23:28:53.537Z,57.14
2023-05-08T23:31:40.411Z,60.00
2023-05-08T23:34:27.127Z,59.34
2023-05-08T23:37:13.553Z,60.09
2023-05-08T23:39:59.686Z,59.95
2023-05-08T23:42:46.594Z,60.34
2023-05-08T23:45:33.095Z,60.20
2023-05-08T23:48:19.277Z,60.86
2023-05-08T23:51:06.254Z,71.79
2023-05-08T23:53:52.648Z,74.64
2023-05-08T23:56:39.175Z,64.05
2023-05-08T23:59:25.771Z,54.39
